Ianis Marin

Chefscout - Universitatea Craiova
25 Nov 2027
Donnerstag
Verarbeitung

Persönlichkeit

Anpassungsfähigkeit (11) Ehrgeiz (8) Kontroverse (2) Loyalität (14) Druck (1) Professionalität (8) Fairness (14) Temperament (12)

Profil

Trainerstil Demokratisch
Lizenz Kontinentale C
Entschlossenheit 10
Menschenführung 9
Motivation 5
Disziplin 11
Arbeitszufriedenheit
100%
Ermüdung
0%
Rolle Chefscout
Gehalt 58.5K p/W
Vertrag 14.03.2029

Leistung

Verhalten Gut
Trainingseffektivität
40%
Spielerentwicklung
25%
Verletzungsprävention
40%
Taktische Umsetzung
60%

Letzte Ereignisse

Spieler begutachtet jetzt
Nahm an einer Scouting-Besprechung teil jetzt
Spieler begutachtet 7T her
Nahm an einer Scouting-Besprechung teil 7T her
Spieler begutachtet 7T her
Spieler begutachtet 7T her
Spieler begutachtet 7T her
Spieler begutachtet 7T her

Aktuell beobachtet

352
Spieler Verein Status Fähigkeit Vertrauen Beobachtet Zuletzt beobachtet Letzte Stimme
Roman Celentano FC Cincinnati Aktiv 122 / 124 40% 7 24.11.2027 -
Leopold Wahlstedt Rosenborg Aktiv 125 / 124 40% 6 24.11.2027 -
Vanja Milinković-Savić Torino Aktiv 156 / 162 40% 3 24.11.2027 -
Dayne St. Clair Inter Miami CF Aktiv 127 / 125 40% 6 23.11.2027 -
Jamie Cumming Oxford United Aktiv 130 / 138 40% 9 23.11.2027 -
Alexandr Maximenko Rubin Aktiv 125 / 122 40% 5 23.11.2027 -
James Pantemis Portland Timbers Aktiv 118 / 132 40% 3 22.11.2027 -
Tomáš Frühwald Bohemians 1905 Aktiv 126 / 117 40% 1 22.11.2027 -
Nikola Vasilj Al-Diriyah Aktiv 145 / 149 40% 2 21.11.2027 -
Drake Callender Minnesota United FC Aktiv 118 / 137 40% 5 21.11.2027 -
Michael Cooper Sheffield United Aktiv 138 / 122 40% 5 20.11.2027 -
Alex Palmer Norwich City Aktiv 131 / 119 40% 5 19.11.2027 -
Dean Henderson Crystal Palace Aktiv 153 / 165 40% 5 19.11.2027 -
Maílson Al-Taawoun Aktiv 139 / 132 40% 2 19.11.2027 -
Ľubomír Belko Viking Aktiv 142 / 141 40% 3 17.11.2027 -
Matt Freese New York City Aktiv 131 / 142 40% 5 17.11.2027 -
Santiago Silva CFR Cluj Aktiv 132 / 139 40% 5 15.11.2027 -
Gabriel Słonina Oldham Athletic Aktiv 124 / 118 40% 2 15.11.2027 -
Semuel Pizzignacco Monza Aktiv 131 / 136 40% 1 15.11.2027 -
Lukáš Horníček Newcastle United Aktiv 154 / 150 40% 2 14.11.2027 -
Zion Suzuki Burnley Aktiv 147 / 148 40% 7 14.11.2027 -
Mark Travers Birmingham Aktiv 143 / 140 40% 4 14.11.2027 -
Xavier Dziekoński Korona Aktiv 124 / 125 40% 1 13.11.2027 -
Patrick Schulte Columbus Crew Aktiv 130 / 135 40% 3 12.11.2027 -
Randall Rodríguez River Plate Aktiv 123 / 133 40% 2 12.11.2027 -
Anthony Racioppi Young Boys Aktiv 135 / 139 40% 1 12.11.2027 -
Geovanni Banguera Deportivo Pasto Aktiv 119 / 114 40% 3 11.11.2027 -
Matías Borgogno San Martín SJ Aktiv 123 / 138 40% 4 11.11.2027 -
Matouš Trmal Teplice Aktiv 124 / 120 40% 2 11.11.2027 -
Jerónimo Pourtau Talleres Aktiv 122 / 137 40% 8 10.11.2027 -
Joe Whitworth Stockport County Aktiv 117 / 123 40% 2 10.11.2027 -
Renato Solís Sporting Cristal Aktiv 135 / 122 40% 1 09.11.2027 -
Abduvohid Ne'matov Nasaf Aktiv 133 / 122 40% 2 08.11.2027 -
Peter Vindahl Sparta Prague Aktiv 128 / 119 40% 1 08.11.2027 -
Renzo Bacchia Racing Aktiv 125 / 128 40% 2 07.11.2027 -
Facundo Cambeses Racing Club Aktiv 129 / 132 40% 6 06.11.2027 -
Aaron Ramsdale Southampton Aktiv 149 / 160 40% 3 06.11.2027 -
Agustín Anello Philadelphia Union Aktiv 122 / 137 40% 2 06.11.2027 -
Emil Ceïde Rosenborg Aktiv 135 / 128 40% 1 06.11.2027 -
André Franco Chicago Fire Aktiv 133 / 124 40% 1 06.11.2027 -
Oleksandr Saputin Poltava Aktiv 127 / 124 40% 2 02.11.2027 -
Angus Gunn San Jose Earthquakes Aktiv 134 / 119 40% 6 02.11.2027 -
Cheikh Sabaly Vancouver Whitecaps Aktiv 132 / 124 40% 2 02.11.2027 -
Brais Méndez Columbus Crew Aktiv 153 / 156 40% 1 02.11.2027 -
Josh Griffiths Bournemouth Aktiv 135 / 138 40% 5 01.11.2027 -
Lucas Bruera Carabobo Aktiv 125 / 128 40% 2 01.11.2027 -
Mateo Silvetti Los Angeles Football Club Aktiv 129 / 118 40% 1 31.10.2027 -
Elias Achouri San Diego Football Club Aktiv 126 / 119 40% 1 31.10.2027 -
Obinna Nwobodo FC Cincinnati Aktiv 119 / 122 40% 1 31.10.2027 -
Pavel Bucha FC Cincinnati Aktiv 135 / 117 40% 1 30.10.2027 -
Martín Ojeda Orlando City Aktiv 141 / 128 40% 1 30.10.2027 -
Theo Corbeanu Toronto FC Aktiv 125 / 114 40% 1 30.10.2027 -
Radek Vítek Middlesbrough Aktiv 150 / 157 40% 3 28.10.2027 -
Luis Ingolotti Atlético Tucumán Aktiv 124 / 128 40% 3 23.10.2027 -
Lukas Gütlbauer Wolfsberger AC Aktiv 113 / 128 40% 1 23.10.2027 -
Duvan Rangel La Equidad Aktiv 146 / 144 40% 2 20.10.2027 -
Antonio Galeano Remo Stars Aktiv 125 / 125 40% 1 20.10.2027 -
Antony Portland Timbers Aktiv 133 / 134 40% 1 20.10.2027 -
Robin Roefs Sunderland Aktiv 148 / 163 40% 3 18.10.2027 -
Caoimhin Kelleher Brentford Aktiv 166 / 149 40% 2 18.10.2027 -
Ştefan Târnovanu FCSB Aktiv 122 / 138 40% 5 17.10.2027 -
Diogo Costa Manchester City Aktiv 169 / 161 40% 1 17.10.2027 -
Novak Mićović LA Galaxy Aktiv 114 / 134 40% 4 16.10.2027 -
Marek Rodák Malmo FF Aktiv 128 / 118 40% 3 16.10.2027 -
Nikola Čavlina Dinamo Zagreb Aktiv 129 / 124 40% 1 16.10.2027 -
Nicolas Schmid Portsmouth Aktiv 122 / 131 40% 2 15.10.2027 -
John Victor Crystal Palace Aktiv 131 / 143 40% 4 14.10.2027 -
Tadeo Allende Inter Miami CF Aktiv 134 / 123 40% 1 14.10.2027 -
André Luiz New York City Aktiv 138 / 131 40% 1 13.10.2027 -
Guillermo Enrique Huracán Aktiv 124 / 119 40% 1 13.10.2027 -
Youssef Maziz Colorado Rapids Aktiv 125 / 114 40% 1 13.10.2027 -
Arijanet Murić Sassuolo Aktiv 154 / 134 40% 2 12.10.2027 -
João Virgínia Wolverhampton Aktiv 126 / 143 40% 1 10.10.2027 -
Ralph Orquin Seattle Sounders Aktiv 121 / 131 40% 1 10.10.2027 -
Gonzalo Abrego Godoy Cruz Aktiv 128 / 130 40% 1 10.10.2027 -
Kostantis Tzolakis Hull City Aktiv 147 / 157 40% 6 07.10.2027 -
Jakub Markovič Slavia Prague Aktiv 127 / 138 40% 1 06.10.2027 -
Murphy Cooper Plymouth Argyle Aktiv 119 / 132 40% 2 05.10.2027 -
Balázs Tóth Blackburn Rovers Aktiv 133 / 142 40% 1 05.10.2027 -
Diego Romero Universitario Aktiv 131 / 117 40% 6 04.10.2027 -
Cristopher Fiermarin Defensa y Justicia Aktiv 125 / 111 40% 3 03.10.2027 -
Mateusz Kochalski Dynamo Kyiv Aktiv 143 / 139 40% 1 03.10.2027 -
Daniel Iversen Preston Aktiv 144 / 124 40% 1 30.09.2027 -
Daniil Khudyakov Sturm Graz Aktiv 140 / 122 40% 1 30.09.2027 -
Egil Selvik Watford Aktiv 128 / 123 40% 1 27.09.2027 -
Oliver Petersen Dinamo Batumi Aktiv 114 / 123 40% 4 25.09.2027 -
Martin Jedlička Banik Ostrava Aktiv 130 / 126 40% 1 23.09.2027 -
Filip Jörgensen Chelsea Aktiv 155 / 162 40% 2 22.09.2027 -
Max O'Leary West Bromwich Albion Aktiv 123 / 142 40% 1 22.09.2027 -
Viktor Johansson Bristol City Aktiv 132 / 134 40% 1 21.09.2027 -
Sol Brynn Krasnodar Aktiv 133 / 132 40% 1 19.09.2027 -
Christian Walton Ipswich Town Aktiv 127 / 125 40% 3 18.09.2027 -
Altay Bayındır Manchester United Aktiv 136 / 138 40% 2 18.09.2027 -
Lautaro Amadé Defensa y Justicia Aktiv 119 / 123 40% 1 17.09.2027 -
Yuma Obata Avispa Fukuoka Aktiv 136 / 131 40% 1 16.09.2027 -
Illan Meslier Middlesbrough Aktiv 128 / 132 40% 1 16.09.2027 -
Brandon Austin Liverpool Aktiv 135 / 128 40% 2 15.09.2027 -
Andriy Lunin Real Madrid Aktiv 166 / 172 40% 1 15.09.2027 -
Marcus Bundgaard SonderjyskE Aktiv 126 / 113 40% 1 15.09.2027 -
George Wickens Lincoln City Aktiv 129 / 110 40% 3 14.09.2027 -
Anton Mitryushkin Lokomotiv Moscow Aktiv 121 / 117 40% 1 14.09.2027 -
John Pulskamp Sporting Kansas City Aktiv 122 / 126 40% 2 10.09.2027 -
Patrick Pentz Brondby Aktiv 131 / 137 40% 1 09.09.2027 -
Maduka Okoye Udinese Aktiv 144 / 146 40% 4 08.09.2027 -
Jacob Widell Zetterström Derby County Aktiv 128 / 122 40% 2 08.09.2027 -
Gavin Bazunu Southampton Aktiv 135 / 138 40% 1 04.09.2027 -
James Trafford Leeds United Aktiv 141 / 161 40% 2 02.09.2027 -
Fabrizio Correa Montevideo City Torque Aktiv 120 / 108 40% 1 02.09.2027 -
Lukas Jensen Millwall Aktiv 125 / 137 40% 2 24.08.2027 -
Samu Maccabi Netanya Aktiv 111 / 105 40% 2 21.08.2027 -
Riccardo Gagno Vicenza Aktiv 125 / 134 40% 2 20.08.2027 -
Iván Arboleda Sarmiento Aktiv 114 / 115 40% 2 19.08.2027 -
Omri Glazer Maccabi Haifa Aktiv 139 / 129 40% 2 16.08.2027 -
Lorenzo Palmisani Frosinone Aktiv 136 / 149 40% 1 09.08.2027 -
Pol Tristán Barnsley Aktiv 115 / 127 40% 2 08.08.2027 -
Assaf Tzur Hapoel Tel Aviv Aktiv 127 / 107 40% 1 07.08.2027 -
Simone Scuffet Pisa Aktiv 128 / 121 40% 2 03.08.2027 -
Jonathan Klinsmann Cesena Aktiv 137 / 118 40% 1 30.07.2027 -
Aynsley Pears Blackburn Rovers Aktiv 123 / 124 40% 1 25.07.2027 -
Mihai Toma FCSB Verloren 97 / 104 72% 1 19.07.2027 -
Milan van Ewijk Mansfield Town Aktiv 131 / 140 40% 5 15.06.2027 -
Kasey McAteer Ipswich Town Aktiv 124 / 118 40% 1 15.06.2027 -
Mamoudou Karamoko Dinamo Bucharest Verloren 119 / 115 72% 1 02.06.2027 -
Everton Bala Levski Aktiv 129 / 121 40% 4 01.06.2027 -
Bertrand Traoré Sunderland Aktiv 128 / 127 40% 1 01.06.2027 -
Aidan Morris Middlesbrough Aktiv 131 / 127 40% 3 31.05.2027 -
Jason Knight Bristol City Aktiv 136 / 125 40% 2 31.05.2027 -
Idrissa Touré Monza Aktiv 128 / 147 40% 1 31.05.2027 -
Kazunari Kita Real Sociedad Aktiv 90 / 103 40% 2 30.05.2027 -
Mpho Khethang AS Police Aktiv 81 / 89 40% 1 30.05.2027 -
Simone Kosijer Triestina Aktiv 93 / 90 40% 1 30.05.2027 -
Jay Matete Milton Keynes Dons Aktiv 117 / 113 40% 1 29.05.2027 -
Harvey White Stevenage Aktiv 122 / 111 40% 1 29.05.2027 -
Ethan Williams Peterborough United Aktiv 123 / 122 40% 4 28.05.2027 -
Chem Campbell Stevenage Aktiv 112 / 123 40% 2 28.05.2027 -
Christian Saydee Wigan Athletic Aktiv 119 / 104 40% 2 28.05.2027 -
Isaiah Jones Luton Town Aktiv 124 / 109 40% 7 25.05.2027 -
Xavier Amaechi Plymouth Argyle Aktiv 111 / 109 40% 3 24.05.2027 -
Paddy Lane Reading Aktiv 119 / 98 40% 2 24.05.2027 -
Darlin Yongwa Norwich City Aktiv 135 / 116 40% 3 23.05.2027 -
Alfie Doughty Millwall Aktiv 136 / 117 40% 1 23.05.2027 -
Kelly Saravanan Salford City Aktiv 106 / 118 40% 2 22.05.2027 -
Christos Mouzakitis Hull City Aktiv 122 / 140 40% 3 22.05.2027 -
Christ Inao Oulaï Fiorentina Aktiv 139 / 141 40% 2 22.05.2027 -
Josh Smith Accrington Stanley Aktiv 74 / 83 40% 1 22.05.2027 -
Tyreece Campbell Charlton Athletic Aktiv 120 / 129 40% 4 20.05.2027 -
Jack Moylan Lincoln City Aktiv 112 / 117 40% 1 20.05.2027 -
Jack Diamond Stockport County Aktiv 116 / 125 40% 3 19.05.2027 -
Richard Koné Queens Park Rangers Aktiv 114 / 112 40% 5 17.05.2027 -
Melker Widell Swansea City Aktiv 118 / 134 40% 1 17.05.2027 -
Derensili Sanches Fernandes Huddersfield Town Aktiv 118 / 111 40% 3 16.05.2027 -
Malik Mothersille Stockport County Aktiv 112 / 124 40% 3 15.05.2027 -
Daniel Kelly Oxford United Aktiv 106 / 112 40% 1 15.05.2027 -
Juan Mosquera Sheffield Wednesday Aktiv 132 / 135 40% 2 12.05.2027 -
Adam Randell Bristol City Aktiv 130 / 139 40% 2 11.05.2027 -
Josh Edwards Charlton Athletic Aktiv 127 / 107 40% 2 11.05.2027 -
Stanley Mills Oxford United Aktiv 124 / 117 40% 7 09.05.2027 -
Aaron Morley Wycombe Wanderers Aktiv 117 / 123 40% 1 09.05.2027 -
Eom Ji-Sung Swansea City Aktiv 116 / 112 40% 1 09.05.2027 -
Daniel Vernattus Metalist Aktiv 94 / 104 40% 1 09.05.2027 -
Juan Giménez Celta Aktiv 109 / 133 40% 1 09.05.2027 -
Zaïd BafdilI Sporting CP Aktiv 86 / 88 40% 1 09.05.2027 -
Mandla Erasmus SuperSport United Aktiv 122 / 125 40% 4 07.05.2027 -
Leif Davis Ipswich Town Aktiv 145 / 130 40% 3 06.05.2027 -
Tyrese Campbell Sheffield United Aktiv 138 / 138 40% 1 06.05.2027 -
Kwame Poku Queens Park Rangers Aktiv 114 / 112 40% 4 05.05.2027 -
Joseph Hungbo Wigan Athletic Aktiv 116 / 97 40% 4 05.05.2027 -
Zak Swanson Bradford City Aktiv 126 / 120 40% 2 04.05.2027 -
Idris El Mizouni Leyton Orient Aktiv 118 / 114 40% 2 03.05.2027 -
Williams Manyama SuperSport United Aktiv 126 / 106 40% 4 02.05.2027 -
Dennis Cirkin Queens Park Rangers Aktiv 137 / 125 40% 1 02.05.2027 -
Matteo Pérez Vinlöf Dinamo Zagreb Aktiv 125 / 126 40% 1 01.05.2027 -
Adam Bakoune Ospitaletto Aktiv 90 / 96 40% 1 01.05.2027 -
Isaac Price West Bromwich Albion Aktiv 134 / 123 40% 4 29.04.2027 -
Tshepang Moremi Orlando Pirates Aktiv 120 / 124 40% 6 26.04.2027 -
Tyler Goodrham Oxford United Aktiv 133 / 126 40% 3 25.04.2027 -
Othmane Maamma Watford Aktiv 127 / 141 40% 4 25.04.2027 -
George Hall Port Vale Aktiv 117 / 113 40% 1 24.04.2027 -
Harry Leonard Peterborough United Aktiv 98 / 114 40% 1 23.04.2027 -
Stiven Shpendi Empoli Aktiv 121 / 109 40% 1 23.04.2027 -
Ronald Swansea City Aktiv 134 / 120 40% 3 21.04.2027 -
Dylan Lawlor Cardiff City Aktiv 121 / 118 40% 3 21.04.2027 -
Danyil Alefirenko Chornomorets Aktiv 111 / 114 40% 1 21.04.2027 -
Caleb Yirenkyi Coventry City Aktiv 145 / 152 40% 2 20.04.2027 -
Taras Mykhavko Dynamo Kyiv Aktiv 132 / 131 40% 1 20.04.2027 -
Matías Gómez Granada Aktiv 121 / 131 40% 1 19.04.2027 -
Yussif Saidu Zaragoza Aktiv 121 / 138 40% 1 19.04.2027 -
Mduduzi Shabalala Kaizer Chiefs Aktiv 113 / 109 40% 3 17.04.2027 -
Paris Maghoma Norwich City Aktiv 123 / 136 40% 1 17.04.2027 -
Sam Bell Bristol City Aktiv 115 / 111 40% 1 17.04.2027 -
David Turnbull Cardiff City Aktiv 124 / 131 40% 5 16.04.2027 -
Sebastián Arce Rodina Aktiv 113 / 109 40% 1 16.04.2027 -
Dylan Levitt Leyton Orient Aktiv 122 / 127 40% 1 15.04.2027 -
Abu Kamara Portsmouth Aktiv 117 / 123 40% 2 14.04.2027 -
Santiago Pierotti Lecce Aktiv 140 / 120 40% 1 14.04.2027 -
Cian Ashford Cardiff City Aktiv 125 / 117 40% 3 12.04.2027 -
George Earthy Reading Aktiv 107 / 118 40% 1 12.04.2027 -
Petar Stanić Ludogorets Aktiv 139 / 126 40% 4 11.04.2027 -
Justin Devenny Stoke City Aktiv 129 / 135 40% 1 11.04.2027 -
Scott Twine Bristol City Aktiv 129 / 121 40% 3 10.04.2027 -
Siyanda Ndlovu Bloemfontein Celtic Aktiv 108 / 121 40% 2 07.04.2027 -
Tomáš Rigo Stoke City Aktiv 124 / 123 40% 2 05.04.2027 -
Felix Afful Liberty Professionals Aktiv 87 / 79 40% 2 05.04.2027 -
Konta Ismaily Aktiv 91 / 106 40% 1 05.04.2027 -
Ernie Weaver AFC Wimbledon Aktiv 98 / 123 40% 1 05.04.2027 -
Andrea Colpani Monza Aktiv 144 / 141 40% 1 03.04.2027 -
Edoardo Bove Watford Aktiv 123 / 121 40% 1 03.04.2027 -
Caolan Boyd-Munce Wycombe Wanderers Aktiv 130 / 117 40% 3 02.04.2027 -
Mathias Jørgensen Blackburn Rovers Aktiv 110 / 128 40% 3 02.04.2027 -
Pelle Mattsson Norwich City Aktiv 122 / 122 40% 1 02.04.2027 -
Josh Tymon Swansea City Aktiv 119 / 136 40% 3 01.04.2027 -
Oswin Appollis Orlando Pirates Aktiv 133 / 111 40% 5 30.03.2027 -
Ollie Tanner Cardiff City Aktiv 116 / 115 40% 4 29.03.2027 -
Lewis Bate Stockport County Aktiv 115 / 112 40% 1 29.03.2027 -
Nazar Voloshyn Dynamo Kyiv Aktiv 124 / 123 40% 2 27.03.2027 -
Derry Murkin Derby County Aktiv 137 / 116 40% 2 27.03.2027 -
Jan Bürger Gillingham Aktiv 115 / 107 40% 3 27.03.2027 -
Luciano Peluso Giugliano Aktiv 94 / 107 40% 1 27.03.2027 -
Martim Cunha Porto Aktiv 101 / 95 40% 1 26.03.2027 -
David Ozoh Derby County Aktiv 117 / 121 40% 1 26.03.2027 -
Marcelo Allende Mamelodi Sundowns Aktiv 144 / 116 40% 4 24.03.2027 -
Kellen Fisher Norwich City Aktiv 126 / 114 40% 1 23.03.2027 -
Petr Juliš Slovan Liberec Aktiv 113 / 107 40% 1 20.03.2027 -
Bosun Lawal Stoke City Aktiv 118 / 130 40% 1 19.03.2027 -
Vasilije Novičić IMT Aktiv 97 / 108 40% 1 19.03.2027 -
Mikey Johnston West Bromwich Albion Aktiv 112 / 106 40% 2 15.03.2027 -
Jacques Ekomié Wrexham Aktiv 137 / 118 40% 1 14.03.2027 -
Alex Robertson Cardiff City Aktiv 112 / 135 40% 2 11.03.2027 -
Louie Barry Sheffield Wednesday Aktiv 127 / 120 40% 1 06.03.2027 -
Giorgi Chakvetadze Watford Aktiv 138 / 131 40% 1 06.03.2027 -
Keagan Tau Ajax Cape Town Aktiv 103 / 87 40% 1 06.03.2027 -
David Atiemo Liberty Professionals Aktiv 84 / 94 40% 1 06.03.2027 -
Fuzy Taylor Medeama Aktiv 79 / 88 40% 1 06.03.2027 -
Cathal Heffernan Harrogate Town Aktiv 84 / 87 40% 1 04.03.2027 -
Dmitry Pestryakov Dinamo Moscow Aktiv 107 / 118 40% 1 04.03.2027 -
James Dornelly Peterborough United Aktiv 98 / 100 40% 1 01.03.2027 -
Keagan Phiri Platinum Stars Aktiv 96 / 107 40% 1 01.03.2027 -
Mfundo Vilakazi Kaizer Chiefs Aktiv 109 / 121 40% 1 21.02.2027 -
Christian Krasnodar Aktiv 139 / 139 40% 2 20.02.2027 -
Koki Saito Queens Park Rangers Aktiv 136 / 110 40% 1 19.02.2027 -
Alessio Zerbin Frosinone Aktiv 139 / 123 40% 1 17.02.2027 -
Andre Brooks Sheffield United Aktiv 127 / 128 40% 1 16.02.2027 -
Daniel Kyerewaa Reading Aktiv 114 / 102 40% 2 12.02.2027 -
Jack Rudoni Coventry City Aktiv 142 / 137 40% 1 12.02.2027 -
Imrân Louza Watford Aktiv 129 / 137 40% 1 10.02.2027 -
Zeidane Inoussa Swansea City Aktiv 111 / 108 40% 1 08.02.2027 -
Jack Currie Oxford United Aktiv 118 / 120 40% 1 08.02.2027 -
Bongani Modiba Black Aces Aktiv 120 / 118 40% 1 05.02.2027 -
Reda Khadra Qarabag Aktiv 140 / 133 40% 1 03.02.2027 -
Josh Vickers Rotherham United Aktiv 122 / 114 40% 1 26.01.2027 -
George Puşcaş Dinamo Bucharest Verloren 121 / 129 69% 1 18.01.2027 -
Andrea Carboni Monza Aktiv 138 / 141 40% 1 03.01.2027 -
Álex Centelles Levski Aktiv 124 / 113 40% 1 02.01.2027 -
Williams Yikat Aigle Royal de Moungo Aktiv 82 / 93 40% 2 01.01.2027 -
Dramane Kamagaté USM Alger Aktiv 99 / 115 40% 1 01.01.2027 -
Axel Kayombo Sturm Graz Aktiv 110 / 105 40% 1 01.01.2027 -
Lewis Morgan SuperSport United Aktiv 136 / 111 40% 1 31.12.2026 -
Alejandro Melo Cibalia Aktiv 125 / 113 40% 1 31.12.2026 -
Robert Mizo Ashanti Gold Aktiv 107 / 111 40% 4 30.12.2026 -
Jean Galindo Imotski Aktiv 79 / 95 40% 2 30.12.2026 -
Martin Sekulić Ural Aktiv 118 / 107 40% 1 30.12.2026 -
Jacques Siwe Rubin Aktiv 110 / 109 40% 2 28.12.2026 -
Yeangel Montero Naxxar Lions Aktiv 103 / 110 40% 1 28.12.2026 -
Jonás Luna Santa Clara Aktiv 123 / 127 40% 4 25.12.2026 -
Luke Baartman ES Mostaganem Aktiv 100 / 97 40% 2 25.12.2026 -
Wendell Livyi Bereh Aktiv 86 / 100 40% 2 24.12.2026 -
Alagie Wally Veres Aktiv 93 / 97 40% 1 24.12.2026 -
Ben Ahmed Kohili Paradou Aktiv 90 / 120 40% 1 24.12.2026 -
Darlvin Yeboah Bechem United Aktiv 86 / 82 40% 2 23.12.2026 -
Mandla Mahlangu Ajax Cape Town Aktiv 111 / 108 40% 4 21.12.2026 -
Mattia Felici Cagliari Aktiv 127 / 135 40% 1 19.12.2026 -
Vyacheslav Grulev Nizhniy Novgorod Aktiv 111 / 122 40% 1 18.12.2026 -
Luka Kurtovic NK Domzale Aktiv 129 / 122 40% 2 17.12.2026 -
Breel Embolo Atlanta United FC Aktiv 128 / 149 40% 3 17.12.2026 -
Nicolás Cordero Aldosivi Aktiv 114 / 104 40% 1 16.12.2026 -
David Miculescu FCSB Verloren 126 / 113 40% 1 15.12.2026 -
Brayan León Mamelodi Sundowns Aktiv 122 / 99 40% 1 14.12.2026 -
Agustín Módica Gimnasia y Esgrima Aktiv 117 / 111 40% 1 14.12.2026 -
Kabu Agyemang Raymond Bechem United Aktiv 72 / 86 40% 1 14.12.2026 -
Milán Tóth Vasas Aktiv 111 / 98 40% 2 12.12.2026 -
Alberto Soro Dinamo Bucharest Verloren 115 / 120 40% 4 12.12.2026 -
Kévin Denkey FC Cincinnati Aktiv 116 / 111 40% 1 12.12.2026 -
Themba Ngcobo SuperSport United Aktiv 125 / 100 40% 2 11.12.2026 -
Chinedu Geoffrey Krylya Sovetov Aktiv 111 / 112 40% 1 10.12.2026 -
Evidence Makgopa Orlando Pirates Aktiv 109 / 102 40% 3 09.12.2026 -
David Kalokoh Ajax Aktiv 119 / 117 40% 2 08.12.2026 -
Aidomo Emakhu Oxford United Aktiv 130 / 112 40% 1 08.12.2026 -
Lévy Néne FC Nordsjaelland Aktiv 106 / 121 40% 1 08.12.2026 -
Edarlyn Reyes Arsenal Tula Aktiv 115 / 100 40% 1 05.12.2026 -
Victor Adeboyejo Ismaily Aktiv 104 / 121 40% 1 04.12.2026 -
Jonás Acevedo Instituto Aktiv 119 / 126 40% 1 03.12.2026 -
Ramiro Ruiz Rodríguez Atlético Tucumán Aktiv 133 / 129 40% 1 30.11.2026 -
Thiago Salischiker Rucci HNK Vukovar 1991 Aktiv 96 / 98 40% 1 30.11.2026 -
Marko Brkić NK Krka Aktiv 83 / 98 40% 1 30.11.2026 -
Alexis Cuello San Lorenzo Aktiv 128 / 122 40% 1 27.11.2026 -
Bénie Traoré New York City Aktiv 120 / 125 40% 2 26.11.2026 -
Ruben Ramos LA Galaxy Aktiv 84 / 100 40% 4 22.11.2026 -
Leon Grgić Sturm Graz Aktiv 126 / 139 40% 1 22.11.2026 -
Andrei Dumitru Botosani Aktiv 83 / 94 40% 2 21.11.2026 -
Hassan Beja AFC Leopards Aktiv 80 / 79 40% 4 20.11.2026 -
Fletcher Holman Swindon Town Aktiv 80 / 102 40% 1 20.11.2026 -
Peter Christiansen Viking Aktiv 111 / 132 40% 1 17.11.2026 -
Dejan Joveljić Seattle Sounders Aktiv 125 / 111 40% 1 17.11.2026 -
Miloš Jovičić Zabbar St. Patrick Aktiv 81 / 80 40% 1 15.11.2026 -
Sam Surridge Nashville SC Aktiv 135 / 138 40% 1 10.11.2026 -
Stephen Humphrys Bradford City Aktiv 111 / 125 40% 2 09.11.2026 -
Maurits Kjærgaard Red Bull Salzburg Aktiv 129 / 137 40% 1 09.11.2026 -
Krisztofer Horváth Ujpest Aktiv 118 / 112 40% 1 08.11.2026 -
Brandon Vázquez Austin FC Aktiv 108 / 108 40% 1 07.11.2026 -
Daniel Karlsbakk Sarpsborg 08 Aktiv 134 / 110 40% 1 07.11.2026 -
Danil Glebov Dinamo Moscow Aktiv 129 / 131 40% 2 06.11.2026 -
Bradley Tau SuperSport United Aktiv 121 / 126 40% 1 06.11.2026 -
Leonardo Campana New England Revolution Aktiv 133 / 116 40% 1 05.11.2026 -
Kein Sato FC Tokyo Aktiv 140 / 134 40% 1 05.11.2026 -
Tio Cipot NK Maribor Aktiv 122 / 121 40% 1 02.11.2026 -
Ruben van Bommel Ferencvaros Aktiv 134 / 123 40% 1 02.11.2026 -
Alasana Yirajang AS Trencin Aktiv 105 / 115 40% 4 01.11.2026 -
Chineme Chinonso Ikorodu City Aktiv 98 / 89 40% 3 30.10.2026 -
Adama Goïta Remo Stars Aktiv 90 / 102 40% 2 26.10.2026 -
Agustín Fernández NK Zavrc Aktiv 81 / 89 40% 1 26.10.2026 -
Nikolay Zlatev Cherno More Aktiv 106 / 112 40% 2 23.10.2026 -
Maximo Ingravidi Colón Aktiv 86 / 95 40% 1 21.10.2026 -
Csanád Vilmos Dénes Debrecen Aktiv 105 / 113 40% 1 20.10.2026 -
Tomás Romero Unión de Santa Fe Aktiv 90 / 116 40% 2 19.10.2026 -
Matvii Ponomarenko Dynamo Kyiv Aktiv 119 / 120 40% 1 16.10.2026 -
Alan Cisnero Shukura Aktiv 93 / 110 40% 1 16.10.2026 -
Luca Bărbulescu KuPS Aktiv 85 / 92 40% 3 15.10.2026 -
Nikita Kuzin Kaluga Aktiv 75 / 84 40% 1 14.10.2026 -
Mohammed Yahaya Great Olympics Aktiv 89 / 96 40% 1 12.10.2026 -
Sidiki Chérif Coventry City Aktiv 120 / 142 40% 1 11.10.2026 -
Kaio Eduardo Thun Aktiv 110 / 123 40% 3 10.10.2026 -
Andrey Domotsev Mashuk Aktiv 84 / 88 40% 1 10.10.2026 -
Andrei Mărginean Dinamo Bucharest Aktiv 105 / 107 40% 1 08.10.2026 -
Simão Rocha CFR Cluj Aktiv 128 / 127 40% 1 08.10.2026 -
Facundo Miño Deportivo Riestra Aktiv 112 / 119 40% 1 05.10.2026 -
Abubakar Garba Grasshopper Aktiv 79 / 88 40% 1 29.09.2026 -
Tobías Ganduglia Independiente Rivadavia Aktiv 81 / 109 40% 1 27.09.2026 -
Bautista Pereira Danubio Aktiv 101 / 105 40% 1 22.09.2026 -
Jere Vrcić Birkirkara Aktiv 87 / 109 40% 2 18.09.2026 -
Branco Ripoll Aldosivi Aktiv 80 / 98 40% 1 16.09.2026 -
Ewan Henderson Wycombe Wanderers Aktiv 105 / 119 40% 1 12.09.2026 -
Alexandr Chernikov Krasnodar Aktiv 125 / 122 40% 1 12.09.2026 -
Chinedu Onyinjekwu Bayelsa United Aktiv 86 / 100 40% 1 11.09.2026 -
Thiago Ponce Rosario Central Aktiv 103 / 112 40% 1 10.09.2026 -
Bruno Morales Cerro Aktiv 102 / 95 40% 1 10.09.2026 -
Lucas Souto Defensa y Justicia Aktiv 119 / 134 40% 1 08.09.2026 -
Delvin Alfonzo Deportivo Tachira Aktiv 125 / 130 40% 1 08.09.2026 -
Conrad Wallem Austria Wien Aktiv 134 / 130 40% 1 07.09.2026 -
Joel Latibeaudiere Coventry City Aktiv 107 / 105 40% 1 07.09.2026 -
Michael Svoboda Brighton Aktiv 116 / 119 40% 1 07.09.2026 -
Nobel Mendy Hull City Aktiv 121 / 126 40% 1 02.08.2026 -
Jack Fletcher Manchester United Aktiv 103 / 98 40% 1 02.08.2026 -